Terminal Aerodrome Forecast
Issued by NWS

Home | Current Version | Previous Version | Text Only | Print | Product List | Glossary On
Versions: 1 2 3 4 5 6 7 8 9 10 11 12
000
FTUS46 KMTR 200526
TAFSJC
TAF
KSJC 200526Z 2006/2106 30006KT P6SM SKC
     FM201200 VRB04KT P6SM SKC
     FM201500 16003KT P6SM SKC
     FM201900 30007KT P6SM SKC
     FM210400 VRB03KT P6SM BKN200=

USA.gov is the U.S. government's official web portal to all federal, state and local government web resources and services.